sensor_id;sensor_type;location;lat;lon;timestamp;temperature;humidity
33943;DHT22;66763;47.856;17.462;2023-05-10T00:02:02;21.80;43.30
33943;DHT22;66763;47.856;17.462;2023-05-10T00:04:27;21.80;43.30
33943;DHT22;66763;47.856;17.462;2023-05-10T00:06:53;21.80;43.30
33943;DHT22;66763;47.856;17.462;2023-05-10T00:09:19;21.80;43.40
33943;DHT22;66763;47.856;17.462;2023-05-10T00:11:44;21.80;43.40
33943;DHT22;66763;47.856;17.462;2023-05-10T00:14:10;21.70;43.30
33943;DHT22;66763;47.856;17.462;2023-05-10T00:16:36;21.80;43.40
33943;DHT22;66763;47.856;17.462;2023-05-10T00:19:02;21.70;43.40
33943;DHT22;66763;47.856;17.462;2023-05-10T00:21:28;21.70;43.40
33943;DHT22;66763;47.856;17.462;2023-05-10T00:23:54;21.70;43.40
33943;DHT22;66763;47.856;17.462;2023-05-10T00:26:19;21.70;43.50
33943;DHT22;66763;47.856;17.462;2023-05-10T00:28:45;21.60;43.40
33943;DHT22;66763;47.856;17.462;2023-05-10T00:31:10;21.70;43.50
33943;DHT22;66763;47.856;17.462;2023-05-10T00:33:36;21.60;43.40
33943;DHT22;66763;47.856;17.462;2023-05-10T00:36:01;21.60;43.40
33943;DHT22;66763;47.856;17.462;2023-05-10T00:38:27;21.60;43.40
33943;DHT22;66763;47.856;17.462;2023-05-10T00:40:52;21.60;43.50
33943;DHT22;66763;47.856;17.462;2023-05-10T00:43:18;21.60;43.50
33943;DHT22;66763;47.856;17.462;2023-05-10T00:45:43;21.60;43.50
33943;DHT22;66763;47.856;17.462;2023-05-10T00:48:09;21.50;43.50
33943;DHT22;66763;47.856;17.462;2023-05-10T00:50:35;21.60;43.50
33943;DHT22;66763;47.856;17.462;2023-05-10T00:53:00;21.50;43.50
33943;DHT22;66763;47.856;17.462;2023-05-10T00:55:27;21.50;43.50
33943;DHT22;66763;47.856;17.462;2023-05-10T00:57:53;21.50;43.60
33943;DHT22;66763;47.856;17.462;2023-05-10T01:00:18;21.50;44.10
33943;DHT22;66763;47.856;17.462;2023-05-10T01:02:44;21.50;43.50
33943;DHT22;66763;47.856;17.462;2023-05-10T01:05:10;21.50;43.50
33943;DHT22;66763;47.856;17.462;2023-05-10T01:07:35;21.50;43.50
33943;DHT22;66763;47.856;17.462;2023-05-10T01:10:01;21.50;43.60
33943;DHT22;66763;47.856;17.462;2023-05-10T01:12:26;21.50;43.60
33943;DHT22;66763;47.856;17.462;2023-05-10T01:14:52;21.50;43.60
33943;DHT22;66763;47.856;17.462;2023-05-10T01:17:18;21.40;43.60
33943;DHT22;66763;47.856;17.462;2023-05-10T01:19:44;21.40;43.60
33943;DHT22;66763;47.856;17.462;2023-05-10T01:32:36;21.40;43.70
33943;DHT22;66763;47.856;17.462;2023-05-10T01:37:56;21.40;43.70
33943;DHT22;66763;47.856;17.462;2023-05-10T01:40:25;21.30;43.70
33943;DHT22;66763;47.856;17.462;2023-05-10T01:42:53;21.30;43.70
33943;DHT22;66763;47.856;17.462;2023-05-10T01:45:21;21.30;43.70
33943;DHT22;66763;47.856;17.462;2023-05-10T01:47:54;21.30;43.70
33943;DHT22;66763;47.856;17.462;2023-05-10T01:50:24;21.30;43.70
33943;DHT22;66763;47.856;17.462;2023-05-10T01:52:51;21.30;43.70
33943;DHT22;66763;47.856;17.462;2023-05-10T01:55:20;21.30;43.70
33943;DHT22;66763;47.856;17.462;2023-05-10T01:57:46;21.30;43.70
33943;DHT22;66763;47.856;17.462;2023-05-10T02:00:13;21.30;43.70
33943;DHT22;66763;47.856;17.462;2023-05-10T02:02:40;21.30;43.70
33943;DHT22;66763;47.856;17.462;2023-05-10T02:05:07;21.30;43.70
33943;DHT22;66763;47.856;17.462;2023-05-10T02:07:34;21.30;43.70
33943;DHT22;66763;47.856;17.462;2023-05-10T02:10:01;21.20;43.60
33943;DHT22;66763;47.856;17.462;2023-05-10T02:12:27;21.20;43.70
33943;DHT22;66763;47.856;17.462;2023-05-10T02:14:54;21.20;43.70
33943;DHT22;66763;47.856;17.462;2023-05-10T02:17:20;21.20;43.70
33943;DHT22;66763;47.856;17.462;2023-05-10T02:19:46;21.20;43.70
33943;DHT22;66763;47.856;17.462;2023-05-10T02:22:12;21.20;43.70
33943;DHT22;66763;47.856;17.462;2023-05-10T02:24:38;21.20;43.70
33943;DHT22;66763;47.856;17.462;2023-05-10T02:27:03;21.20;43.70
33943;DHT22;66763;47.856;17.462;2023-05-10T02:29:30;21.20;43.80
33943;DHT22;66763;47.856;17.462;2023-05-10T02:31:56;21.20;43.80
33943;DHT22;66763;47.856;17.462;2023-05-10T02:34:22;21.20;43.70
33943;DHT22;66763;47.856;17.462;2023-05-10T02:36:48;21.10;43.80
33943;DHT22;66763;47.856;17.462;2023-05-10T02:39:15;21.10;43.80
33943;DHT22;66763;47.856;17.462;2023-05-10T02:41:44;21.10;43.80
33943;DHT22;66763;47.856;17.462;2023-05-10T02:44:10;21.10;43.90
33943;DHT22;66763;47.856;17.462;2023-05-10T02:46:36;21.10;43.90
33943;DHT22;66763;47.856;17.462;2023-05-10T02:49:02;21.10;43.80
33943;DHT22;66763;47.856;17.462;2023-05-10T02:51:30;21.10;43.90
33943;DHT22;66763;47.856;17.462;2023-05-10T02:53:57;21.10;43.90
33943;DHT22;66763;47.856;17.462;2023-05-10T02:56:28;21.10;43.90
33943;DHT22;66763;47.856;17.462;2023-05-10T02:58:54;21.10;43.90
33943;DHT22;66763;47.856;17.462;2023-05-10T03:01:20;21.00;43.80
33943;DHT22;66763;47.856;17.462;2023-05-10T03:03:45;21.00;44.00
33943;DHT22;66763;47.856;17.462;2023-05-10T03:06:11;21.00;43.90
33943;DHT22;66763;47.856;17.462;2023-05-10T03:08:36;21.00;43.90
33943;DHT22;66763;47.856;17.462;2023-05-10T03:16:15;21.00;43.90
33943;DHT22;66763;47.856;17.462;2023-05-10T03:18:44;21.00;44.10
33943;DHT22;66763;47.856;17.462;2023-05-10T03:21:10;21.00;43.90
33943;DHT22;66763;47.856;17.462;2023-05-10T03:23:44;21.00;43.90
33943;DHT22;66763;47.856;17.462;2023-05-10T03:26:12;21.10;43.90
33943;DHT22;66763;47.856;17.462;2023-05-10T03:28:39;21.00;44.00
33943;DHT22;66763;47.856;17.462;2023-05-10T03:31:06;21.00;43.90
33943;DHT22;66763;47.856;17.462;2023-05-10T03:33:32;20.90;44.00
33943;DHT22;66763;47.856;17.462;2023-05-10T03:35:57;20.90;44.10
33943;DHT22;66763;47.856;17.462;2023-05-10T03:38:23;20.90;44.00
33943;DHT22;66763;47.856;17.462;2023-05-10T03:40:48;20.90;44.10
33943;DHT22;66763;47.856;17.462;2023-05-10T03:43:14;20.90;44.00
33943;DHT22;66763;47.856;17.462;2023-05-10T03:45:39;20.90;44.20
33943;DHT22;66763;47.856;17.462;2023-05-10T03:48:05;20.90;44.00
33943;DHT22;66763;47.856;17.462;2023-05-10T03:50:31;20.90;44.10
33943;DHT22;66763;47.856;17.462;2023-05-10T03:52:56;20.90;44.00
33943;DHT22;66763;47.856;17.462;2023-05-10T03:55:22;20.90;44.10
33943;DHT22;66763;47.856;17.462;2023-05-10T03:57:48;20.90;44.00
33943;DHT22;66763;47.856;17.462;2023-05-10T04:00:14;20.90;44.10
33943;DHT22;66763;47.856;17.462;2023-05-10T04:02:40;20.80;43.90
33943;DHT22;66763;47.856;17.462;2023-05-10T04:05:06;20.90;44.00
33943;DHT22;66763;47.856;17.462;2023-05-10T04:07:31;20.80;44.00
33943;DHT22;66763;47.856;17.462;2023-05-10T04:09:57;20.80;44.00
33943;DHT22;66763;47.856;17.462;2023-05-10T04:12:22;20.90;44.00
33943;DHT22;66763;47.856;17.462;2023-05-10T04:14:48;20.80;43.90
33943;DHT22;66763;47.856;17.462;2023-05-10T04:17:13;20.80;44.00
33943;DHT22;66763;47.856;17.462;2023-05-10T04:19:39;20.80;44.00
33943;DHT22;66763;47.856;17.462;2023-05-10T04:22:04;20.80;44.00
33943;DHT22;66763;47.856;17.462;2023-05-10T04:24:30;20.80;44.30
33943;DHT22;66763;47.856;17.462;2023-05-10T04:26:55;20.80;44.20
33943;DHT22;66763;47.856;17.462;2023-05-10T04:29:20;20.80;44.10
33943;DHT22;66763;47.856;17.462;2023-05-10T04:31:46;20.80;44.10
33943;DHT22;66763;47.856;17.462;2023-05-10T04:34:11;20.80;44.00
33943;DHT22;66763;47.856;17.462;2023-05-10T04:36:37;20.80;44.10
33943;DHT22;66763;47.856;17.462;2023-05-10T04:39:03;20.80;44.00
33943;DHT22;66763;47.856;17.462;2023-05-10T04:41:28;20.80;44.00
33943;DHT22;66763;47.856;17.462;2023-05-10T04:43:54;20.80;44.20
33943;DHT22;66763;47.856;17.462;2023-05-10T04:46:19;20.80;44.00
33943;DHT22;66763;47.856;17.462;2023-05-10T04:48:45;20.80;44.10
33943;DHT22;66763;47.856;17.462;2023-05-10T04:51:10;20.80;44.00
33943;DHT22;66763;47.856;17.462;2023-05-10T04:53:36;20.80;44.10
33943;DHT22;66763;47.856;17.462;2023-05-10T04:56:01;20.80;44.00
33943;DHT22;66763;47.856;17.462;2023-05-10T04:58:27;20.80;44.10
33943;DHT22;66763;47.856;17.462;2023-05-10T05:00:52;20.80;44.00
33943;DHT22;66763;47.856;17.462;2023-05-10T05:03:18;20.80;44.00
33943;DHT22;66763;47.856;17.462;2023-05-10T05:05:43;20.80;44.10
33943;DHT22;66763;47.856;17.462;2023-05-10T05:08:09;20.80;44.00
33943;DHT22;66763;47.856;17.462;2023-05-10T05:10:35;20.80;44.10
33943;DHT22;66763;47.856;17.462;2023-05-10T05:13:00;20.80;44.00
33943;DHT22;66763;47.856;17.462;2023-05-10T05:15:26;20.80;44.10
33943;DHT22;66763;47.856;17.462;2023-05-10T05:17:51;20.70;44.10
33943;DHT22;66763;47.856;17.462;2023-05-10T05:20:17;20.70;44.10
33943;DHT22;66763;47.856;17.462;2023-05-10T05:22:44;20.70;44.00
33943;DHT22;66763;47.856;17.462;2023-05-10T05:25:09;20.70;44.00
33943;DHT22;66763;47.856;17.462;2023-05-10T05:27:35;20.80;44.10
33943;DHT22;66763;47.856;17.462;2023-05-10T05:30:01;20.70;44.00
33943;DHT22;66763;47.856;17.462;2023-05-10T05:32:26;20.70;44.00
33943;DHT22;66763;47.856;17.462;2023-05-10T05:34:52;20.70;44.10
33943;DHT22;66763;47.856;17.462;2023-05-10T05:37:18;20.80;44.10
33943;DHT22;66763;47.856;17.462;2023-05-10T05:39:44;20.70;44.10
33943;DHT22;66763;47.856;17.462;2023-05-10T05:42:10;20.80;44.10
33943;DHT22;66763;47.856;17.462;2023-05-10T05:44:36;20.70;44.10
33943;DHT22;66763;47.856;17.462;2023-05-10T05:47:01;20.70;44.10
33943;DHT22;66763;47.856;17.462;2023-05-10T05:49:27;20.70;44.10
33943;DHT22;66763;47.856;17.462;2023-05-10T05:51:52;20.60;44.10
33943;DHT22;66763;47.856;17.462;2023-05-10T05:54:18;20.70;44.20
33943;DHT22;66763;47.856;17.462;2023-05-10T05:56:43;20.60;44.10
33943;DHT22;66763;47.856;17.462;2023-05-10T05:59:09;20.60;44.20
33943;DHT22;66763;47.856;17.462;2023-05-10T06:01:35;20.60;44.30
33943;DHT22;66763;47.856;17.462;2023-05-10T06:04:00;20.60;44.50
33943;DHT22;66763;47.856;17.462;2023-05-10T06:06:26;20.60;44.30
33943;DHT22;66763;47.856;17.462;2023-05-10T06:08:52;20.60;44.20
33943;DHT22;66763;47.856;17.462;2023-05-10T06:11:17;20.60;44.20
33943;DHT22;66763;47.856;17.462;2023-05-10T06:13:43;20.60;44.20
33943;DHT22;66763;47.856;17.462;2023-05-10T06:16:08;20.60;44.20
33943;DHT22;66763;47.856;17.462;2023-05-10T06:18:34;20.60;44.20
33943;DHT22;66763;47.856;17.462;2023-05-10T06:20:59;20.60;44.20
33943;DHT22;66763;47.856;17.462;2023-05-10T06:23:25;20.60;44.30
33943;DHT22;66763;47.856;17.462;2023-05-10T06:25:51;20.60;44.10
33943;DHT22;66763;47.856;17.462;2023-05-10T06:28:17;20.60;44.10
33943;DHT22;66763;47.856;17.462;2023-05-10T06:30:42;20.60;44.10
33943;DHT22;66763;47.856;17.462;2023-05-10T06:33:08;20.60;44.10
33943;DHT22;66763;47.856;17.462;2023-05-10T06:35:33;20.60;44.20
33943;DHT22;66763;47.856;17.462;2023-05-10T06:37:59;20.60;44.30
33943;DHT22;66763;47.856;17.462;2023-05-10T06:40:25;20.60;44.30
33943;DHT22;66763;47.856;17.462;2023-05-10T06:42:50;20.60;44.20
33943;DHT22;66763;47.856;17.462;2023-05-10T06:45:16;20.60;44.20
33943;DHT22;66763;47.856;17.462;2023-05-10T06:47:42;20.60;44.10
33943;DHT22;66763;47.856;17.462;2023-05-10T06:50:08;20.60;44.10
33943;DHT22;66763;47.856;17.462;2023-05-10T06:52:34;20.60;44.30
33943;DHT22;66763;47.856;17.462;2023-05-10T06:55:00;20.60;44.20
33943;DHT22;66763;47.856;17.462;2023-05-10T06:57:25;20.60;44.30
33943;DHT22;66763;47.856;17.462;2023-05-10T06:59:51;20.60;44.40
33943;DHT22;66763;47.856;17.462;2023-05-10T07:02:16;20.60;44.60
33943;DHT22;66763;47.856;17.462;2023-05-10T07:04:42;20.60;44.60
33943;DHT22;66763;47.856;17.462;2023-05-10T07:07:07;20.60;44.60
33943;DHT22;66763;47.856;17.462;2023-05-10T07:09:33;20.60;44.50
33943;DHT22;66763;47.856;17.462;2023-05-10T07:11:59;20.60;44.50
33943;DHT22;66763;47.856;17.462;2023-05-10T07:14:24;20.70;44.50
33943;DHT22;66763;47.856;17.462;2023-05-10T07:16:50;20.70;44.50
33943;DHT22;66763;47.856;17.462;2023-05-10T07:19:15;20.70;44.50
33943;DHT22;66763;47.856;17.462;2023-05-10T07:21:41;20.70;44.70
33943;DHT22;66763;47.856;17.462;2023-05-10T07:24:08;20.70;44.40
33943;DHT22;66763;47.856;17.462;2023-05-10T07:26:34;20.60;44.30
33943;DHT22;66763;47.856;17.462;2023-05-10T07:28:59;20.60;44.20
33943;DHT22;66763;47.856;17.462;2023-05-10T07:31:25;20.60;44.10
33943;DHT22;66763;47.856;17.462;2023-05-10T07:33:50;20.60;44.10
33943;DHT22;66763;47.856;17.462;2023-05-10T07:36:16;20.60;44.10
33943;DHT22;66763;47.856;17.462;2023-05-10T07:38:41;20.60;44.10
33943;DHT22;66763;47.856;17.462;2023-05-10T07:41:06;20.60;44.40
33943;DHT22;66763;47.856;17.462;2023-05-10T07:43:32;20.60;44.30
33943;DHT22;66763;47.856;17.462;2023-05-10T07:45:57;20.60;44.20
33943;DHT22;66763;47.856;17.462;2023-05-10T07:48:24;20.60;44.10
33943;DHT22;66763;47.856;17.462;2023-05-10T07:50:50;20.60;44.20
33943;DHT22;66763;47.856;17.462;2023-05-10T07:53:16;20.60;44.20
33943;DHT22;66763;47.856;17.462;2023-05-10T07:55:41;20.60;44.10
33943;DHT22;66763;47.856;17.462;2023-05-10T07:58:07;20.70;44.10
33943;DHT22;66763;47.856;17.462;2023-05-10T08:00:32;20.60;44.10
33943;DHT22;66763;47.856;17.462;2023-05-10T08:02:59;20.60;44.10
33943;DHT22;66763;47.856;17.462;2023-05-10T08:05:24;20.60;44.00
33943;DHT22;66763;47.856;17.462;2023-05-10T08:07:50;20.60;44.10
33943;DHT22;66763;47.856;17.462;2023-05-10T08:10:15;20.60;44.20
33943;DHT22;66763;47.856;17.462;2023-05-10T08:12:42;20.60;44.10
33943;DHT22;66763;47.856;17.462;2023-05-10T08:15:07;20.60;44.20
33943;DHT22;66763;47.856;17.462;2023-05-10T08:17:33;20.60;44.10
33943;DHT22;66763;47.856;17.462;2023-05-10T08:19:59;20.70;44.20
33943;DHT22;66763;47.856;17.462;2023-05-10T08:22:24;20.60;44.20
33943;DHT22;66763;47.856;17.462;2023-05-10T08:24:49;20.60;44.10
33943;DHT22;66763;47.856;17.462;2023-05-10T08:27:15;20.70;44.20
33943;DHT22;66763;47.856;17.462;2023-05-10T08:32:25;20.70;44.30
33943;DHT22;66763;47.856;17.462;2023-05-10T08:34:51;20.60;44.20
33943;DHT22;66763;47.856;17.462;2023-05-10T08:37:16;20.60;44.20
33943;DHT22;66763;47.856;17.462;2023-05-10T08:39:42;20.60;44.20
33943;DHT22;66763;47.856;17.462;2023-05-10T08:42:07;20.70;44.30
33943;DHT22;66763;47.856;17.462;2023-05-10T08:44:34;20.60;44.20
33943;DHT22;66763;47.856;17.462;2023-05-10T08:47:02;20.60;44.20
33943;DHT22;66763;47.856;17.462;2023-05-10T08:49:30;20.70;44.30
33943;DHT22;66763;47.856;17.462;2023-05-10T08:51:56;20.60;44.30
33943;DHT22;66763;47.856;17.462;2023-05-10T08:54:22;20.70;44.30
33943;DHT22;66763;47.856;17.462;2023-05-10T08:56:48;20.60;44.30
33943;DHT22;66763;47.856;17.462;2023-05-10T08:59:14;20.60;44.40
33943;DHT22;66763;47.856;17.462;2023-05-10T09:01:40;20.60;44.30
33943;DHT22;66763;47.856;17.462;2023-05-10T09:04:07;20.60;44.30
33943;DHT22;66763;47.856;17.462;2023-05-10T09:06:33;20.60;44.30
33943;DHT22;66763;47.856;17.462;2023-05-10T09:08:59;20.60;44.30
33943;DHT22;66763;47.856;17.462;2023-05-10T09:11:25;20.60;44.30
33943;DHT22;66763;47.856;17.462;2023-05-10T09:13:51;20.60;44.30
33943;DHT22;66763;47.856;17.462;2023-05-10T09:16:17;20.60;44.50
33943;DHT22;66763;47.856;17.462;2023-05-10T09:18:43;20.60;45.10
33943;DHT22;66763;47.856;17.462;2023-05-10T09:21:08;20.60;44.40
33943;DHT22;66763;47.856;17.462;2023-05-10T09:23:35;20.60;44.30
33943;DHT22;66763;47.856;17.462;2023-05-10T09:26:04;20.60;44.80
33943;DHT22;66763;47.856;17.462;2023-05-10T09:28:33;20.60;44.50
33943;DHT22;66763;47.856;17.462;2023-05-10T09:30:59;20.60;44.70
33943;DHT22;66763;47.856;17.462;2023-05-10T09:33:24;20.60;45.10
33943;DHT22;66763;47.856;17.462;2023-05-10T09:35:51;20.60;44.90
33943;DHT22;66763;47.856;17.462;2023-05-10T09:38:17;20.50;44.80
33943;DHT22;66763;47.856;17.462;2023-05-10T09:40:42;20.50;45.10
33943;DHT22;66763;47.856;17.462;2023-05-10T09:43:19;20.60;44.80
33943;DHT22;66763;47.856;17.462;2023-05-10T09:45:45;20.50;45.30
33943;DHT22;66763;47.856;17.462;2023-05-10T09:48:13;20.50;45.20
33943;DHT22;66763;47.856;17.462;2023-05-10T09:50:38;20.50;45.10
33943;DHT22;66763;47.856;17.462;2023-05-10T09:53:04;20.50;44.80
33943;DHT22;66763;47.856;17.462;2023-05-10T09:55:40;20.50;45.40
33943;DHT22;66763;47.856;17.462;2023-05-10T09:58:05;20.60;45.30
33943;DHT22;66763;47.856;17.462;2023-05-10T10:00:36;20.50;45.50
33943;DHT22;66763;47.856;17.462;2023-05-10T10:03:02;20.50;45.20
33943;DHT22;66763;47.856;17.462;2023-05-10T10:05:28;20.50;45.40
33943;DHT22;66763;47.856;17.462;2023-05-10T10:07:55;20.40;45.20
33943;DHT22;66763;47.856;17.462;2023-05-10T10:10:20;20.50;45.10
33943;DHT22;66763;47.856;17.462;2023-05-10T10:12:46;20.40;45.30
33943;DHT22;66763;47.856;17.462;2023-05-10T10:15:11;20.40;45.10
33943;DHT22;66763;47.856;17.462;2023-05-10T10:17:37;20.50;45.00
33943;DHT22;66763;47.856;17.462;2023-05-10T10:20:04;20.40;45.20
33943;DHT22;66763;47.856;17.462;2023-05-10T10:22:30;20.40;45.40
33943;DHT22;66763;47.856;17.462;2023-05-10T10:24:55;20.50;45.00
33943;DHT22;66763;47.856;17.462;2023-05-10T10:27:24;20.50;45.10
33943;DHT22;66763;47.856;17.462;2023-05-10T10:34:46;20.40;45.20
33943;DHT22;66763;47.856;17.462;2023-05-10T10:37:11;20.40;45.30
33943;DHT22;66763;47.856;17.462;2023-05-10T10:39:37;20.50;45.00
33943;DHT22;66763;47.856;17.462;2023-05-10T10:42:03;20.40;44.90
33943;DHT22;66763;47.856;17.462;2023-05-10T10:47:43;20.40;45.00
33943;DHT22;66763;47.856;17.462;2023-05-10T10:49:49;20.40;45.00
33943;DHT22;66763;47.856;17.462;2023-05-10T10:52:32;20.40;44.80
33943;DHT22;66763;47.856;17.462;2023-05-10T10:57:27;20.50;44.70
33943;DHT22;66763;47.856;17.462;2023-05-10T11:00:17;20.50;44.80
33943;DHT22;66763;47.856;17.462;2023-05-10T11:07:51;20.50;44.60
33943;DHT22;66763;47.856;17.462;2023-05-10T11:10:19;20.50;44.70
33943;DHT22;66763;47.856;17.462;2023-05-10T11:13:06;20.50;44.40
33943;DHT22;66763;47.856;17.462;2023-05-10T11:15:32;20.50;44.50
33943;DHT22;66763;47.856;17.462;2023-05-10T11:17:58;20.50;44.70
33943;DHT22;66763;47.856;17.462;2023-05-10T11:20:26;20.50;44.60
33943;DHT22;66763;47.856;17.462;2023-05-10T11:23:00;20.50;44.60
33943;DHT22;66763;47.856;17.462;2023-05-10T11:25:39;20.50;44.60
33943;DHT22;66763;47.856;17.462;2023-05-10T11:28:05;20.50;44.60
33943;DHT22;66763;47.856;17.462;2023-05-10T11:30:31;20.60;44.60
33943;DHT22;66763;47.856;17.462;2023-05-10T11:32:56;20.60;44.60
33943;DHT22;66763;47.856;17.462;2023-05-10T11:35:22;20.60;44.60
33943;DHT22;66763;47.856;17.462;2023-05-10T11:37:47;20.60;44.70
33943;DHT22;66763;47.856;17.462;2023-05-10T11:40:13;20.60;44.80
33943;DHT22;66763;47.856;17.462;2023-05-10T11:42:39;20.60;44.70
33943;DHT22;66763;47.856;17.462;2023-05-10T11:45:05;20.60;45.20
33943;DHT22;66763;47.856;17.462;2023-05-10T11:47:31;20.60;45.30
33943;DHT22;66763;47.856;17.462;2023-05-10T11:49:57;20.60;45.60
33943;DHT22;66763;47.856;17.462;2023-05-10T11:52:23;20.70;45.80
33943;DHT22;66763;47.856;17.462;2023-05-10T11:54:52;20.70;45.60
33943;DHT22;66763;47.856;17.462;2023-05-10T11:57:18;20.70;45.50
33943;DHT22;66763;47.856;17.462;2023-05-10T11:59:44;20.70;45.80
33943;DHT22;66763;47.856;17.462;2023-05-10T12:02:09;20.70;45.70
33943;DHT22;66763;47.856;17.462;2023-05-10T12:04:35;20.70;46.30
33943;DHT22;66763;47.856;17.462;2023-05-10T12:07:01;20.70;46.70
33943;DHT22;66763;47.856;17.462;2023-05-10T12:09:26;20.80;47.10
33943;DHT22;66763;47.856;17.462;2023-05-10T12:11:55;20.80;47.20
33943;DHT22;66763;47.856;17.462;2023-05-10T12:14:21;20.80;47.10
33943;DHT22;66763;47.856;17.462;2023-05-10T12:16:47;20.80;47.20
33943;DHT22;66763;47.856;17.462;2023-05-10T12:19:12;20.80;47.10
33943;DHT22;66763;47.856;17.462;2023-05-10T12:21:43;20.90;47.20
33943;DHT22;66763;47.856;17.462;2023-05-10T12:24:09;20.80;47.10
33943;DHT22;66763;47.856;17.462;2023-05-10T12:26:35;20.80;47.10
33943;DHT22;66763;47.856;17.462;2023-05-10T12:29:19;20.80;46.90
33943;DHT22;66763;47.856;17.462;2023-05-10T12:31:51;20.80;46.90
33943;DHT22;66763;47.856;17.462;2023-05-10T12:34:24;20.80;46.80
33943;DHT22;66763;47.856;17.462;2023-05-10T12:36:51;20.80;46.90
33943;DHT22;66763;47.856;17.462;2023-05-10T12:39:17;20.80;46.80
33943;DHT22;66763;47.856;17.462;2023-05-10T12:41:43;20.80;46.80
33943;DHT22;66763;47.856;17.462;2023-05-10T12:44:08;20.80;46.70
33943;DHT22;66763;47.856;17.462;2023-05-10T12:46:34;20.80;46.60
33943;DHT22;66763;47.856;17.462;2023-05-10T12:48:59;20.80;46.30
33943;DHT22;66763;47.856;17.462;2023-05-10T12:51:25;20.80;46.20
33943;DHT22;66763;47.856;17.462;2023-05-10T12:53:50;20.80;46.10
33943;DHT22;66763;47.856;17.462;2023-05-10T12:56:15;20.90;46.10
33943;DHT22;66763;47.856;17.462;2023-05-10T12:58:41;20.80;46.00
33943;DHT22;66763;47.856;17.462;2023-05-10T13:01:06;20.80;45.90
33943;DHT22;66763;47.856;17.462;2023-05-10T13:03:32;20.80;45.90
33943;DHT22;66763;47.856;17.462;2023-05-10T13:05:57;20.80;46.00
33943;DHT22;66763;47.856;17.462;2023-05-10T13:08:23;20.80;46.20
33943;DHT22;66763;47.856;17.462;2023-05-10T13:10:49;20.80;46.20
33943;DHT22;66763;47.856;17.462;2023-05-10T13:13:15;20.80;46.40
33943;DHT22;66763;47.856;17.462;2023-05-10T13:15:40;20.80;46.60
33943;DHT22;66763;47.856;17.462;2023-05-10T13:18:06;20.90;46.80
33943;DHT22;66763;47.856;17.462;2023-05-10T13:20:31;20.90;46.90
33943;DHT22;66763;47.856;17.462;2023-05-10T13:22:56;20.90;46.80
33943;DHT22;66763;47.856;17.462;2023-05-10T13:25:22;20.90;46.80
33943;DHT22;66763;47.856;17.462;2023-05-10T13:27:48;20.90;46.70
33943;DHT22;66763;47.856;17.462;2023-05-10T13:30:13;20.90;46.40
33943;DHT22;66763;47.856;17.462;2023-05-10T13:32:39;20.90;46.30
33943;DHT22;66763;47.856;17.462;2023-05-10T13:35:04;20.80;46.00
33943;DHT22;66763;47.856;17.462;2023-05-10T13:37:30;20.90;45.60
33943;DHT22;66763;47.856;17.462;2023-05-10T13:39:56;20.90;45.70
33943;DHT22;66763;47.856;17.462;2023-05-10T13:42:22;20.90;45.70
33943;DHT22;66763;47.856;17.462;2023-05-10T13:44:48;20.90;45.60
33943;DHT22;66763;47.856;17.462;2023-05-10T13:47:13;20.90;45.40
33943;DHT22;66763;47.856;17.462;2023-05-10T13:49:39;20.90;45.10
33943;DHT22;66763;47.856;17.462;2023-05-10T13:52:04;20.80;45.00
33943;DHT22;66763;47.856;17.462;2023-05-10T13:54:38;20.80;45.10
33943;DHT22;66763;47.856;17.462;2023-05-10T13:57:03;20.90;45.20
33943;DHT22;66763;47.856;17.462;2023-05-10T13:59:29;20.90;45.10
33943;DHT22;66763;47.856;17.462;2023-05-10T14:01:57;20.90;45.00
33943;DHT22;66763;47.856;17.462;2023-05-10T14:04:22;20.90;44.80
33943;DHT22;66763;47.856;17.462;2023-05-10T14:06:48;20.90;44.60
33943;DHT22;66763;47.856;17.462;2023-05-10T14:09:13;20.90;44.60
33943;DHT22;66763;47.856;17.462;2023-05-10T14:11:39;20.90;44.30
33943;DHT22;66763;47.856;17.462;2023-05-10T14:14:08;20.90;44.30
33943;DHT22;66763;47.856;17.462;2023-05-10T14:16:34;20.90;44.40
33943;DHT22;66763;47.856;17.462;2023-05-10T14:18:59;20.90;45.10
33943;DHT22;66763;47.856;17.462;2023-05-10T14:21:25;20.80;44.50
33943;DHT22;66763;47.856;17.462;2023-05-10T14:23:50;20.80;44.50
33943;DHT22;66763;47.856;17.462;2023-05-10T14:26:16;20.80;44.40
33943;DHT22;66763;47.856;17.462;2023-05-10T14:28:41;20.80;44.30
33943;DHT22;66763;47.856;17.462;2023-05-10T14:31:07;20.80;44.50
33943;DHT22;66763;47.856;17.462;2023-05-10T14:33:32;20.80;44.40
33943;DHT22;66763;47.856;17.462;2023-05-10T14:35:58;20.80;44.40
33943;DHT22;66763;47.856;17.462;2023-05-10T14:38:25;20.80;44.40
33943;DHT22;66763;47.856;17.462;2023-05-10T14:40:50;20.80;44.40
33943;DHT22;66763;47.856;17.462;2023-05-10T14:43:16;20.80;44.40
33943;DHT22;66763;47.856;17.462;2023-05-10T14:45:43;20.80;44.40
33943;DHT22;66763;47.856;17.462;2023-05-10T14:48:08;20.80;44.40
33943;DHT22;66763;47.856;17.462;2023-05-10T14:50:37;20.80;44.50
33943;DHT22;66763;47.856;17.462;2023-05-10T14:53:03;20.80;44.40
33943;DHT22;66763;47.856;17.462;2023-05-10T14:55:29;20.80;44.40
33943;DHT22;66763;47.856;17.462;2023-05-10T14:57:54;20.80;44.40
33943;DHT22;66763;47.856;17.462;2023-05-10T15:00:20;20.80;44.50
33943;DHT22;66763;47.856;17.462;2023-05-10T15:02:45;20.80;44.60
33943;DHT22;66763;47.856;17.462;2023-05-10T15:05:11;20.80;44.70
33943;DHT22;66763;47.856;17.462;2023-05-10T15:07:37;20.80;44.70
33943;DHT22;66763;47.856;17.462;2023-05-10T15:10:02;20.80;44.70
33943;DHT22;66763;47.856;17.462;2023-05-10T15:12:28;20.80;44.80
33943;DHT22;66763;47.856;17.462;2023-05-10T15:14:53;20.90;44.90
33943;DHT22;66763;47.856;17.462;2023-05-10T15:17:19;20.80;44.90
33943;DHT22;66763;47.856;17.462;2023-05-10T15:19:45;20.80;44.80
33943;DHT22;66763;47.856;17.462;2023-05-10T15:22:10;20.80;44.80
33943;DHT22;66763;47.856;17.462;2023-05-10T15:24:36;20.90;44.90
33943;DHT22;66763;47.856;17.462;2023-05-10T15:27:02;20.90;45.00
33943;DHT22;66763;47.856;17.462;2023-05-10T15:29:27;20.90;45.00
33943;DHT22;66763;47.856;17.462;2023-05-10T15:31:53;20.90;45.10
33943;DHT22;66763;47.856;17.462;2023-05-10T15:34:18;20.90;45.00
33943;DHT22;66763;47.856;17.462;2023-05-10T15:36:44;20.90;45.00
33943;DHT22;66763;47.856;17.462;2023-05-10T15:39:10;20.80;45.00
33943;DHT22;66763;47.856;17.462;2023-05-10T15:41:36;20.80;45.00
33943;DHT22;66763;47.856;17.462;2023-05-10T15:44:01;20.80;45.10
33943;DHT22;66763;47.856;17.462;2023-05-10T15:46:27;20.80;45.10